Marie Maersk — OWJF2 — position and weather

sailwx.info

Track history (hours):
 
Tides and Currents Weather Stations Pressure Air Temp Water Temp Dewpoint Dewpoint Depression Visibility Wind Speed Wind Dir Waves Ship Positions

Marie Maersk

Last reported at 2018-Apr-19 21:09 UTC. Time now 2018-Apr-24 02:41 UTC.
Position N 15°22' E 058°01'.

Length 399 m; draft 13.9 m.

Type: Ship (hazmat cat A). MMSI: 219018765.

Date/timePositionNaut miles runAvg speedWind from/ knotsBaromVisibWave heightAir tempDewpointWater temp
2018-Apr-19 21:09N 15°22' E 058°01'  
2018-Apr-13 05:08N 30°57' E 032°19'1 9.5
2018-Apr-13 05:00N 30°58' E 032°19'14 8.6
2018-Apr-13 03:20N 31°13' E 032°20'9 9.4
2018-Apr-13 02:24N 31°21' E 032°23'3 8.2
2018-Apr-13 02:00N 31°24' E 032°23'4 4.0
2018-Apr-13 01:04N 31°26' E 032°19'0 0.1
2018-Apr-13 00:58N 31°26' E 032°19'0 0.1
2018-Apr-13 00:25N 31°26' E 032°19'35 4.9
2018-Apr-12 17:11N 31°47' E 031°46'4218.1
2018-Apr-12 14:52N 32°06' E 031°02'3919.1
2018-Apr-12 12:51N 32°18' E 030°19'67619.4
2018-Apr-11 02:06N 35°29' E 017°18'114.7
2018-Apr-11 02:00N 35°29' E 017°16'3221.6
2018-Apr-11 00:33N 35°38' E 016°39'0 2.1
2018-Apr-11 00:30N 35°38' E 016°39'1018.7
2018-Apr-10 23:59N 35°40' E 016°27'1018.6
2018-Apr-10 23:28N 35°43' E 016°16'919.9
2018-Apr-10 23:00N 35°46' E 016°05'1121.5
2018-Apr-10 22:28N 35°49' E 015°51'1019.3
2018-Apr-10 21:58N 35°52' E 015°40'1021.4
2018-Apr-10 21:29N 35°55' E 015°28'1120.2
2018-Apr-10 20:58N 35°57' E 015°15'919.5
2018-Apr-10 20:30N 36°00' E 015°05'1220.8
2018-Apr-10 19:54N 36°04' E 014°50'615.0
2018-Apr-10 19:30N 36°06' E 014°43'1120.1
2018-Apr-10 18:58N 36°10' E 014°30'918.7
2018-Apr-10 18:29N 36°13' E 014°20'1422.5
2018-Apr-10 17:52N 36°18' E 014°04'513.6
2018-Apr-10 17:29N 36°20' E 013°58'1423.0
2018-Apr-10 16:52N 36°25' E 013°42'918.6
2018-Apr-10 16:23N 36°28' E 013°31'717.8
2018-Apr-10 16:00N 36°31' E 013°23'1020.8
2018-Apr-10 15:30N 36°35' E 013°12'918.6
2018-Apr-10 15:00N 36°39' E 013°01'1121.1
2018-Apr-10 14:30N 36°43' E 012°49'1121.5
2018-Apr-10 14:00N 36°47' E 012°37'1222.8
2018-Apr-10 13:27N 36°54' E 012°23'918.6
2018-Apr-10 12:59N 36°58' E 012°14'1121.6
2018-Apr-10 12:30N 37°03' E 012°02'1122.0
2018-Apr-10 11:59N 37°08' E 011°49'1322.9
2018-Apr-10 11:26N 37°12' E 011°35'917.0
2018-Apr-10 10:54N 37°16' E 011°25'817.6
2018-Apr-10 10:29N 37°20' E 011°16'1020.2
2018-Apr-10 09:59N 37°24' E 011°05'1322.6
2018-Apr-10 09:26N 37°27' E 010°49'715.9
2018-Apr-10 08:59N 37°28' E 010°40'1123.1
2018-Apr-10 08:29N 37°31' E 010°26'  
Track history (hours):
 
Tides and Currents Weather Stations Pressure Air Temp Water Temp Dewpoint Dewpoint Depression Visibility Wind Speed Wind Dir Waves Ship Positions

Marie Maersk

Last reported at 2018-Apr-19 21:09 UTC. Time now 2018-Apr-24 02:41 UTC.
Position N 15°22' E 058°01'.

Length 399 m; draft 13.9 m.

Type: Ship (hazmat cat A). MMSI: 219018765.

Date/timePositionNaut miles runAvg speedWind from/ knotsBaromVisibWave heightAir tempDewpointWater temp
2018-Apr-19 21:09N 15°22' E 058°01'  
2018-Apr-13 05:08N 30°57' E 032°19'1 9.5
2018-Apr-13 05:00N 30°58' E 032°19'14 8.6
2018-Apr-13 03:20N 31°13' E 032°20'9 9.4
2018-Apr-13 02:24N 31°21' E 032°23'3 8.2
2018-Apr-13 02:00N 31°24' E 032°23'4 4.0
2018-Apr-13 01:04N 31°26' E 032°19'0 0.1
2018-Apr-13 00:58N 31°26' E 032°19'0 0.1
2018-Apr-13 00:25N 31°26' E 032°19'35 4.9
2018-Apr-12 17:11N 31°47' E 031°46'4218.1
2018-Apr-12 14:52N 32°06' E 031°02'3919.1
2018-Apr-12 12:51N 32°18' E 030°19'67619.4
2018-Apr-11 02:06N 35°29' E 017°18'114.7
2018-Apr-11 02:00N 35°29' E 017°16'3221.6
2018-Apr-11 00:33N 35°38' E 016°39'0 2.1
2018-Apr-11 00:30N 35°38' E 016°39'1018.7
2018-Apr-10 23:59N 35°40' E 016°27'1018.6
2018-Apr-10 23:28N 35°43' E 016°16'919.9
2018-Apr-10 23:00N 35°46' E 016°05'1121.5
2018-Apr-10 22:28N 35°49' E 015°51'1019.3
2018-Apr-10 21:58N 35°52' E 015°40'1021.4
2018-Apr-10 21:29N 35°55' E 015°28'1120.2
2018-Apr-10 20:58N 35°57' E 015°15'919.5
2018-Apr-10 20:30N 36°00' E 015°05'1220.8
2018-Apr-10 19:54N 36°04' E 014°50'615.0
2018-Apr-10 19:30N 36°06' E 014°43'1120.1
2018-Apr-10 18:58N 36°10' E 014°30'918.7
2018-Apr-10 18:29N 36°13' E 014°20'1422.5
2018-Apr-10 17:52N 36°18' E 014°04'513.6
2018-Apr-10 17:29N 36°20' E 013°58'1423.0
2018-Apr-10 16:52N 36°25' E 013°42'918.6
2018-Apr-10 16:23N 36°28' E 013°31'717.8
2018-Apr-10 16:00N 36°31' E 013°23'1020.8
2018-Apr-10 15:30N 36°35' E 013°12'918.6
2018-Apr-10 15:00N 36°39' E 013°01'1121.1
2018-Apr-10 14:30N 36°43' E 012°49'1121.5
2018-Apr-10 14:00N 36°47' E 012°37'1222.8
2018-Apr-10 13:27N 36°54' E 012°23'918.6
2018-Apr-10 12:59N 36°58' E 012°14'1121.6
2018-Apr-10 12:30N 37°03' E 012°02'1122.0
2018-Apr-10 11:59N 37°08' E 011°49'1322.9
2018-Apr-10 11:26N 37°12' E 011°35'917.0
2018-Apr-10 10:54N 37°16' E 011°25'817.6
2018-Apr-10 10:29N 37°20' E 011°16'1020.2
2018-Apr-10 09:59N 37°24' E 011°05'1322.6
2018-Apr-10 09:26N 37°27' E 010°49'715.9
2018-Apr-10 08:59N 37°28' E 010°40'1123.1
2018-Apr-10 08:29N 37°31' E 010°26'  

Dump ship's entire track history